Time;durP1;ratioP1;P1;durP2;ratioP2;P2;SDS_P1;SDS_P2;PMS_P1;PMS_P2;Temp;Humidity;BMP_temperature;BMP_pressure;BME280_temperature;BME280_humidity;BME280_pressure;Samples;Min_cycle;Max_cycle;Signal;HPM_P1;HPM_P2
2022/07/09 00:00:33;;;;;;;0.60;0.50;;;14.90;99.90;;;;;;4976320;28;20457;-76
2022/07/09 00:02:59;;;;;;;0.87;0.87;;;14.90;99.90;;;;;;4975888;28;20540;-77
2022/07/09 00:05:26;;;;;;;0.40;0.40;;;14.90;99.90;;;;;;4976282;28;20464;-77
2022/07/09 00:07:53;;;;;;;0.70;0.70;;;14.80;99.90;;;;;;4976277;28;20473;-77
2022/07/09 00:10:20;;;;;;;0.40;0.33;;;14.80;99.90;;;;;;4976074;28;20445;-77
2022/07/09 00:12:46;;;;;;;2.00;0.50;;;14.80;99.90;;;;;;4975882;28;20496;-77
2022/07/09 00:15:14;;;;;;;0.93;0.57;;;14.70;99.90;;;;;;4975954;28;20953;-76
2022/07/09 00:17:41;;;;;;;0.97;0.57;;;14.70;99.90;;;;;;4975978;28;20465;-77
2022/07/09 00:20:09;;;;;;;0.50;0.40;;;14.70;99.90;;;;;;4976177;28;20456;-77
2022/07/09 00:22:36;;;;;;;0.90;0.90;;;14.60;99.90;;;;;;4976107;28;20457;-77
2022/07/09 00:25:04;;;;;;;0.97;0.60;;;14.60;99.90;;;;;;4976034;28;20456;-77
2022/07/09 00:27:30;;;;;;;1.20;1.10;;;14.60;99.90;;;;;;4975589;28;20485;-77
2022/07/09 00:29:57;;;;;;;1.07;0.50;;;14.50;99.90;;;;;;4975908;28;20460;-77
2022/07/09 00:32:25;;;;;;;0.50;0.50;;;14.50;99.90;;;;;;4975891;28;20454;-77
2022/07/09 00:34:52;;;;;;;0.93;0.40;;;14.50;99.90;;;;;;4975840;28;20450;-77
2022/07/09 00:37:19;;;;;;;0.63;0.40;;;14.50;99.90;;;;;;4975764;28;20469;-77
2022/07/09 00:39:45;;;;;;;0.40;0.40;;;14.50;99.90;;;;;;4975735;28;20449;-77
2022/07/09 00:42:12;;;;;;;0.50;0.50;;;14.40;99.90;;;;;;4975405;28;20941;-77
2022/07/09 00:44:39;;;;;;;0.50;0.50;;;14.40;99.90;;;;;;4975395;28;20968;-77
2022/07/09 00:47:08;;;;;;;0.57;0.57;;;14.40;99.90;;;;;;4975417;28;20493;-77
2022/07/09 00:49:40;;;;;;;0.40;0.40;;;14.40;99.90;;;;;;4975533;28;20453;-77
2022/07/09 00:52:10;;;;;;;0.60;0.30;;;14.40;99.90;;;;;;4975590;28;20481;-77
2022/07/09 00:54:37;;;;;;;0.40;0.30;;;14.40;99.90;;;;;;4975188;28;20942;-77
2022/07/09 00:57:06;;;;;;;0.40;0.40;;;14.30;99.90;;;;;;4975062;28;20978;-77
2022/07/09 00:59:33;;;;;;;0.40;0.37;;;14.30;99.90;;;;;;4975381;28;20454;-77
2022/07/09 01:02:01;;;;;;;0.53;0.40;;;14.30;99.90;;;;;;4975040;28;20946;-76
2022/07/09 01:04:28;;;;;;;0.73;0.50;;;14.30;99.90;;;;;;4975263;28;20481;-77
2022/07/09 01:06:57;;;;;;;1.33;0.60;;;14.20;99.90;;;;;;4975164;28;20481;-77
2022/07/09 01:09:24;;;;;;;0.50;0.50;;;14.20;99.90;;;;;;4975194;28;20449;-76
2022/07/09 01:11:51;;;;;;;0.40;0.40;;;14.20;99.90;;;;;;4974804;28;20492;-77
2022/07/09 01:14:18;;;;;;;0.80;0.57;;;14.20;99.90;;;;;;4975149;28;20461;-77
2022/07/09 01:16:45;;;;;;;0.70;0.70;;;14.20;99.90;;;;;;4975036;28;20461;-77
2022/07/09 01:19:12;;;;;;;0.50;0.50;;;14.20;99.90;;;;;;4975087;28;20452;-77
2022/07/09 01:21:40;;;;;;;0.90;0.50;;;14.10;99.90;;;;;;4974806;28;20441;-77
2022/07/09 01:24:07;;;;;;;8.00;0.70;;;14.10;99.90;;;;;;4974697;28;20957;-77
2022/07/09 01:26:35;;;;;;;0.60;0.30;;;14.10;99.90;;;;;;4974771;28;20825;-77
2022/07/09 01:29:02;;;;;;;0.50;0.40;;;14.10;99.90;;;;;;4974548;28;21037;-76
2022/07/09 01:31:29;;;;;;;0.77;0.77;;;14.00;99.90;;;;;;4974565;28;20968;-77
2022/07/09 01:33:56;;;;;;;1.23;0.67;;;14.00;99.90;;;;;;4974865;28;20524;-76
2022/07/09 01:36:22;;;;;;;0.40;0.40;;;14.00;99.90;;;;;;4974719;28;20449;-77
2022/07/09 01:38:50;;;;;;;0.70;0.40;;;14.00;99.90;;;;;;4974514;28;20434;-77
2022/07/09 01:41:17;;;;;;;0.73;0.60;;;14.00;99.90;;;;;;4974713;28;20456;-77
2022/07/09 01:43:44;;;;;;;0.50;0.40;;;13.90;99.90;;;;;;4974445;28;20470;-77
2022/07/09 01:46:10;;;;;;;1.23;0.40;;;13.90;99.90;;;;;;4974504;28;20461;-77
2022/07/09 01:48:38;;;;;;;0.60;0.50;;;13.90;99.90;;;;;;4974662;28;20452;-77
2022/07/09 01:51:05;;;;;;;0.50;0.50;;;13.90;99.90;;;;;;4974592;28;20823;-77
2022/07/09 01:53:33;;;;;;;0.80;0.50;;;13.80;99.90;;;;;;4974603;28;20449;-77
2022/07/09 01:56:05;;;;;;;0.50;0.50;;;13.80;99.90;;;;;;4974295;28;20937;-77
2022/07/09 01:58:32;;;;;;;0.40;0.40;;;13.80;99.90;;;;;;4975071;28;20477;-77
2022/07/09 02:00:59;;;;;;;0.40;0.40;;;13.80;99.90;;;;;;4974561;28;20438;-77
2022/07/09 02:03:26;;;;;;;0.40;0.33;;;13.70;99.90;;;;;;4974887;28;20449;-77
2022/07/09 02:05:52;;;;;;;6.67;0.50;;;13.80;99.90;;;;;;4974539;28;20451;-76
2022/07/09 02:08:19;;;;;;;0.40;0.40;;;13.70;99.90;;;;;;4974000;28;21008;-77
2022/07/09 02:10:46;;;;;;;0.40;0.40;;;13.70;99.90;;;;;;4974505;28;20964;-76
2022/07/09 02:13:14;;;;;;;0.50;0.30;;;13.70;99.90;;;;;;4977992;28;20516;-77
2022/07/09 02:15:41;;;;;;;0.40;0.37;;;13.70;99.90;;;;;;4978144;28;20941;-77
2022/07/09 02:18:08;;;;;;;0.40;0.40;;;13.70;99.90;;;;;;4978294;28;20476;-76
2022/07/09 02:20:35;;;;;;;0.83;0.83;;;13.70;99.90;;;;;;4978301;28;20824;-77
2022/07/09 02:23:02;;;;;;;2.60;0.47;;;13.70;99.90;;;;;;4978300;28;20457;-77
2022/07/09 02:25:28;;;;;;;0.70;0.40;;;13.60;99.90;;;;;;4978237;28;20453;-77
2022/07/09 02:27:55;;;;;;;0.50;0.40;;;13.60;99.90;;;;;;4977734;28;21087;-77
2022/07/09 02:30:23;;;;;;;1.13;0.50;;;13.50;99.90;;;;;;4977917;28;20437;-77
2022/07/09 02:32:50;;;;;;;0.73;0.63;;;13.50;99.90;;;;;;4978111;28;20453;-77
2022/07/09 02:35:17;;;;;;;0.70;0.50;;;13.50;99.90;;;;;;4978033;28;20452;-77
2022/07/09 02:37:43;;;;;;;0.53;0.53;;;13.50;99.90;;;;;;4977949;28;20469;-76
2022/07/09 02:40:11;;;;;;;0.47;0.40;;;13.50;99.90;;;;;;4977689;28;20453;-77
2022/07/09 02:42:38;;;;;;;1.13;1.13;;;13.50;99.90;;;;;;4977925;28;20464;-77
2022/07/09 02:45:05;;;;;;;0.60;0.50;;;13.40;99.90;;;;;;4977911;28;20461;-76
2022/07/09 02:47:33;;;;;;;4.00;0.60;;;13.50;99.90;;;;;;4977383;28;21020;-77
2022/07/09 02:50:00;;;;;;;0.30;0.30;;;13.50;99.90;;;;;;4977791;28;20457;-77
2022/07/09 02:52:27;;;;;;;0.63;0.63;;;13.40;99.90;;;;;;4977756;28;20464;-77
2022/07/09 02:54:53;;;;;;;1.17;0.50;;;13.40;99.90;;;;;;4977469;28;20441;-77
2022/07/09 02:57:20;;;;;;;0.40;0.40;;;13.40;99.90;;;;;;4977533;28;20461;-76
2022/07/09 02:59:47;;;;;;;0.50;0.50;;;13.40;99.90;;;;;;4978015;28;20609;-77
2022/07/09 03:02:14;;;;;;;0.43;0.43;;;13.50;99.90;;;;;;4977266;28;20460;-76
2022/07/09 03:04:42;;;;;;;2.30;0.70;;;13.40;99.90;;;;;;4977506;28;20449;-76
2022/07/09 03:07:09;;;;;;;0.40;0.40;;;13.40;99.90;;;;;;4977135;28;20564;-76
2022/07/09 03:09:35;;;;;;;0.50;0.40;;;13.40;99.90;;;;;;4977418;28;20457;-77
2022/07/09 03:12:02;;;;;;;0.40;0.40;;;13.40;99.90;;;;;;4976925;28;20476;-77
2022/07/09 03:14:29;;;;;;;0.40;0.40;;;13.30;99.90;;;;;;4977345;28;20457;-77
2022/07/09 03:16:56;;;;;;;0.40;0.33;;;13.30;99.90;;;;;;4977006;28;20985;-77
2022/07/09 03:19:22;;;;;;;0.90;0.40;;;13.30;99.90;;;;;;4977241;28;20453;-76
2022/07/09 03:21:50;;;;;;;0.70;0.70;;;13.30;99.90;;;;;;4977217;28;20449;-77
2022/07/09 03:24:17;;;;;;;0.50;0.43;;;13.20;99.90;;;;;;4975970;28;20456;-77
2022/07/09 03:26:44;;;;;;;1.37;1.03;;;13.20;99.90;;;;;;4976970;28;20476;-77
2022/07/09 03:29:10;;;;;;;0.53;0.30;;;13.30;99.90;;;;;;4977459;28;20464;-77
2022/07/09 03:31:37;;;;;;;0.43;0.37;;;13.20;99.90;;;;;;4976725;28;20456;-76
2022/07/09 03:34:05;;;;;;;0.40;0.40;;;13.20;99.90;;;;;;4976957;28;20457;-77
2022/07/09 03:36:32;;;;;;;0.40;0.33;;;13.20;99.90;;;;;;4977103;28;20512;-76
2022/07/09 03:39:00;;;;;;;0.60;0.60;;;13.10;99.90;;;;;;4976594;28;20446;-77
2022/07/09 03:41:27;;;;;;;0.70;0.70;;;13.10;99.90;;;;;;4976577;28;20441;-76
2022/07/09 03:43:54;;;;;;;0.50;0.50;;;13.10;99.90;;;;;;4976819;28;20449;-76
2022/07/09 03:46:20;;;;;;;0.60;0.43;;;13.10;99.90;;;;;;4976709;28;20456;-77
2022/07/09 03:48:48;;;;;;;0.47;0.40;;;13.10;99.90;;;;;;4976218;28;21008;-76
2022/07/09 03:51:15;;;;;;;0.50;0.50;;;13.10;99.90;;;;;;4976386;28;20965;-76
2022/07/09 03:53:42;;;;;;;1.63;0.40;;;13.10;99.90;;;;;;4976628;28;20461;-77
2022/07/09 03:56:10;;;;;;;0.40;0.37;;;13.20;99.90;;;;;;4976585;28;20532;-77
2022/07/09 03:58:37;;;;;;;4.63;0.70;;;13.20;99.90;;;;;;4976513;28;20481;-77
2022/07/09 04:01:04;;;;;;;0.50;0.40;;;13.20;99.90;;;;;;4976513;28;20453;-76
2022/07/09 04:03:31;;;;;;;0.40;0.30;;;13.20;99.90;;;;;;4976443;28;20460;-77
2022/07/09 04:05:58;;;;;;;0.37;0.30;;;13.30;99.90;;;;;;4976091;28;20949;-77
2022/07/09 04:08:24;;;;;;;5.30;0.90;;;13.30;99.90;;;;;;4976230;28;20489;-77
2022/07/09 04:10:51;;;;;;;0.30;0.30;;;13.30;99.90;;;;;;4976159;28;20453;-77
2022/07/09 04:13:19;;;;;;;1.67;0.50;;;13.40;99.90;;;;;;4976349;28;20438;-76
2022/07/09 04:15:46;;;;;;;0.73;0.47;;;13.30;99.90;;;;;;4975935;28;20973;-77
2022/07/09 04:18:14;;;;;;;0.40;0.40;;;13.40;99.90;;;;;;4976138;28;20497;-76
2022/07/09 04:20:41;;;;;;;0.60;0.30;;;13.40;99.90;;;;;;4975823;28;20445;-77
2022/07/09 04:23:08;;;;;;;0.80;0.50;;;13.40;99.90;;;;;;4975877;28;20968;-77
2022/07/09 04:25:34;;;;;;;1.03;0.53;;;13.40;99.90;;;;;;4975757;28;20957;-77
2022/07/09 04:28:01;;;;;;;2.90;0.43;;;13.40;99.90;;;;;;4975539;28;20485;-76
2022/07/09 04:30:30;;;;;;;0.70;0.70;;;13.50;99.90;;;;;;4975666;28;20453;-76
2022/07/09 04:32:56;;;;;;;0.80;0.50;;;13.50;99.90;;;;;;4975929;28;20450;-76
2022/07/09 04:35:23;;;;;;;0.43;0.43;;;13.50;99.90;;;;;;4975585;28;20449;-76
2022/07/09 04:37:50;;;;;;;0.80;0.60;;;13.60;99.90;;;;;;4975592;28;20469;-77
2022/07/09 04:40:17;;;;;;;0.57;0.57;;;13.60;99.90;;;;;;4975796;28;20453;-77
2022/07/09 04:42:43;;;;;;;0.50;0.50;;;13.60;99.90;;;;;;4975685;28;20514;-77
2022/07/09 04:45:11;;;;;;;1.70;0.70;;;13.60;99.90;;;;;;4975664;28;20458;-77
2022/07/09 04:47:39;;;;;;;0.87;0.50;;;13.60;99.90;;;;;;4975502;28;20520;-76
2022/07/09 04:50:07;;;;;;;0.40;0.40;;;13.60;99.90;;;;;;4975597;28;20458;-76
2022/07/09 04:52:33;;;;;;;0.80;0.80;;;13.70;99.90;;;;;;4975536;28;20453;-76
2022/07/09 04:55:00;;;;;;;0.53;0.53;;;13.70;99.90;;;;;;4975488;28;20461;-76
2022/07/09 04:57:27;;;;;;;1.10;0.60;;;13.70;99.90;;;;;;4975427;28;20461;-77
2022/07/09 04:59:58;;;;;;;0.50;0.40;;;13.80;99.90;;;;;;4975422;28;20457;-77
2022/07/09 05:02:24;;;;;;;0.50;0.50;;;13.90;99.90;;;;;;4975100;28;20441;-77
2022/07/09 05:04:52;;;;;;;0.50;0.50;;;14.00;99.90;;;;;;4975341;28;20449;-76
2022/07/09 05:07:19;;;;;;;1.07;0.40;;;14.10;99.90;;;;;;4975139;28;20473;-76
2022/07/09 05:09:46;;;;;;;0.43;0.43;;;14.10;99.90;;;;;;4975214;28;20819;-77
2022/07/09 05:12:13;;;;;;;0.77;0.77;;;14.20;99.90;;;;;;4974830;28;20488;-76
2022/07/09 05:14:40;;;;;;;0.50;0.50;;;14.30;99.90;;;;;;4975177;28;20434;-76
2022/07/09 05:17:07;;;;;;;0.80;0.60;;;14.30;99.90;;;;;;4974744;28;20480;-76
2022/07/09 05:19:33;;;;;;;3.30;0.70;;;14.40;99.90;;;;;;4974763;28;20467;-76
2022/07/09 05:22:02;;;;;;;1.10;0.70;;;14.40;99.90;;;;;;4975040;28;20460;-76
2022/07/09 05:24:29;;;;;;;0.40;0.40;;;14.50;99.90;;;;;;4975039;28;20508;-76
2022/07/09 05:26:55;;;;;;;0.40;0.40;;;14.50;99.90;;;;;;4974556;28;20847;-76
2022/07/09 05:29:24;;;;;;;0.57;0.53;;;14.60;99.90;;;;;;4974868;28;20552;-76
2022/07/09 05:31:51;;;;;;;0.97;0.70;;;14.70;99.90;;;;;;4975376;28;20446;-76
2022/07/09 05:34:17;;;;;;;0.63;0.50;;;14.70;99.90;;;;;;4974541;28;20972;-76
2022/07/09 05:36:44;;;;;;;1.37;0.93;;;14.80;99.90;;;;;;4974738;28;20481;-76
2022/07/09 05:39:12;;;;;;;4.83;1.07;;;14.90;99.90;;;;;;4974503;28;20834;-76
2022/07/09 05:41:39;;;;;;;0.50;0.40;;;14.90;99.90;;;;;;4974417;28;20449;-76
2022/07/09 05:44:06;;;;;;;0.90;0.67;;;15.00;99.90;;;;;;4974710;28;20460;-77
2022/07/09 05:46:32;;;;;;;0.50;0.50;;;15.10;99.90;;;;;;4973998;28;20477;-76
2022/07/09 05:48:59;;;;;;;1.23;0.50;;;15.30;99.90;;;;;;4975106;28;20484;-76
2022/07/09 05:51:26;;;;;;;3.13;0.90;;;15.40;99.90;;;;;;4974672;28;20453;-76
2022/07/09 05:53:53;;;;;;;0.80;0.40;;;15.50;99.90;;;;;;4974648;28;20450;-76
2022/07/09 05:56:21;;;;;;;0.73;0.50;;;15.60;99.90;;;;;;4974521;28;20457;-76
2022/07/09 05:58:48;;;;;;;0.90;0.77;;;15.80;99.90;;;;;;4974574;28;20449;-76
2022/07/09 06:01:15;;;;;;;0.47;0.40;;;15.80;99.90;;;;;;4974602;28;20459;-77
2022/07/09 06:03:42;;;;;;;0.40;0.40;;;15.90;99.90;;;;;;4974270;28;20437;-76
2022/07/09 06:06:09;;;;;;;1.27;0.77;;;16.00;99.90;;;;;;4974467;28;20493;-76
2022/07/09 06:08:37;;;;;;;0.50;0.50;;;16.10;99.90;;;;;;4974129;28;20477;-76
2022/07/09 06:11:04;;;;;;;1.20;0.50;;;16.20;99.90;;;;;;4974235;28;20441;-77
2022/07/09 06:13:32;;;;;;;0.70;0.50;;;16.30;99.90;;;;;;4974492;28;20444;-76
2022/07/09 06:15:58;;;;;;;0.50;0.50;;;16.50;99.90;;;;;;4974296;28;20461;-76
2022/07/09 06:18:25;;;;;;;0.43;0.43;;;16.60;99.90;;;;;;4969555;28;20474;-77
2022/07/09 06:20:52;;;;;;;0.50;0.50;;;16.70;99.90;;;;;;4972326;28;20453;-77
2022/07/09 06:23:20;;;;;;;1.43;0.63;;;16.90;99.90;;;;;;4974451;28;20473;-76
2022/07/09 06:25:47;;;;;;;0.40;0.40;;;17.10;99.90;;;;;;4974565;28;20867;-76
2022/07/09 06:28:14;;;;;;;0.40;0.40;;;17.30;99.90;;;;;;4973668;28;20480;-77
2022/07/09 06:30:43;;;;;;;0.67;0.67;;;17.50;99.90;;;;;;4973942;28;20466;-77
2022/07/09 06:33:10;;;;;;;0.53;0.50;;;17.70;99.90;;;;;;4971124;28;20492;-77
2022/07/09 06:35:37;;;;;;;0.70;0.60;;;18.00;99.90;;;;;;4973222;28;20457;-77
2022/07/09 06:38:04;;;;;;;0.50;0.50;;;18.20;99.90;;;;;;4969834;28;20843;-77
2022/07/09 06:40:31;;;;;;;0.60;0.30;;;18.40;99.90;;;;;;4972299;28;20453;-80
2022/07/09 06:42:57;;;;;;;0.50;0.50;;;18.50;99.90;;;;;;4974196;28;20492;-80
2022/07/09 06:45:24;;;;;;;1.60;0.60;;;18.60;99.90;;;;;;4954643;29;20955;-81
2022/07/09 06:47:53;;;;;;;0.50;0.47;;;18.80;99.90;;;;;;4954779;29;20474;-81
2022/07/09 06:50:20;;;;;;;0.97;0.73;;;19.00;99.90;;;;;;4968054;28;20493;-81
2022/07/09 06:52:47;;;;;;;1.90;0.60;;;19.20;99.90;;;;;;4972918;28;20779;-81
2022/07/09 06:55:14;;;;;;;0.50;0.50;;;19.30;99.90;;;;;;4967051;28;20428;-81
2022/07/09 06:57:41;;;;;;;0.60;0.60;;;19.50;99.90;;;;;;4955723;28;20474;-81
2022/07/09 07:00:09;;;;;;;5.80;0.80;;;19.70;99.90;;;;;;4958260;29;20450;-81
2022/07/09 07:02:35;;;;;;;0.87;0.87;;;20.00;99.90;;;;;;4958252;29;20452;-81
2022/07/09 07:05:04;;;;;;;0.50;0.50;;;20.10;99.90;;;;;;4958217;29;20461;-81
2022/07/09 07:07:31;;;;;;;0.60;0.60;;;20.10;99.90;;;;;;4965148;28;20523;-81
2022/07/09 07:09:58;;;;;;;0.60;0.60;;;20.20;99.90;;;;;;4977388;28;20495;-81
2022/07/09 07:12:24;;;;;;;1.00;0.70;;;20.20;99.90;;;;;;4976967;28;20468;-81
2022/07/09 07:14:51;;;;;;;0.60;0.60;;;20.30;99.90;;;;;;4977378;28;20456;-81
2022/07/09 07:17:18;;;;;;;0.87;0.60;;;20.50;99.90;;;;;;4977287;28;20464;-82
2022/07/09 07:19:45;;;;;;;0.50;0.50;;;20.70;99.90;;;;;;4976961;28;20937;-81
2022/07/09 07:22:13;;;;;;;0.80;0.60;;;20.80;99.90;;;;;;4977255;28;20449;-81
2022/07/09 07:24:40;;;;;;;2.60;0.53;;;20.80;99.90;;;;;;4977009;28;20952;-81
2022/07/09 07:27:06;;;;;;;2.50;0.70;;;20.70;99.90;;;;;;4976836;28;20464;-81
2022/07/09 07:29:33;;;;;;;0.50;0.50;;;20.60;99.90;;;;;;4977059;28;20488;-81
2022/07/09 07:32:00;;;;;;;1.00;0.77;;;20.50;99.90;;;;;;4975436;28;20445;-81
2022/07/09 07:34:26;;;;;;;1.00;0.80;;;20.40;99.90;;;;;;4976956;28;20464;-81
2022/07/09 07:36:54;;;;;;;0.50;0.50;;;20.50;99.90;;;;;;4976902;28;20471;-81
2022/07/09 07:39:24;;;;;;;0.50;0.50;;;20.60;99.90;;;;;;4976949;28;20481;-81
2022/07/09 07:41:51;;;;;;;0.60;0.60;;;20.80;99.90;;;;;;4976916;28;20523;-81
2022/07/09 07:44:18;;;;;;;2.10;0.40;;;21.00;99.90;;;;;;4976892;28;20452;-81
2022/07/09 07:46:44;;;;;;;0.60;0.50;;;21.30;99.90;;;;;;4976780;28;20507;-82
2022/07/09 07:49:11;;;;;;;0.67;0.50;;;21.80;98.50;;;;;;4976392;28;20854;-82
2022/07/09 07:51:38;;;;;;;1.10;0.60;;;22.00;98.60;;;;;;4976757;28;20445;-82
2022/07/09 07:54:05;;;;;;;0.70;0.60;;;22.20;97.30;;;;;;4977393;28;20555;-81
2022/07/09 07:56:36;;;;;;;0.60;0.60;;;22.70;96.20;;;;;;4976593;28;20473;-82
2022/07/09 07:59:03;;;;;;;0.60;0.60;;;23.10;96.20;;;;;;4976869;28;20197;-82
2022/07/09 08:01:30;;;;;;;0.70;0.70;;;23.30;95.60;;;;;;4976530;28;20220;-82
2022/07/09 08:03:56;;;;;;;0.57;0.57;;;23.60;94.90;;;;;;4976214;28;20213;-82
2022/07/09 08:06:23;;;;;;;0.73;0.70;;;23.80;94.80;;;;;;4976399;28;20205;-82
2022/07/09 08:08:50;;;;;;;0.50;0.50;;;24.10;94.10;;;;;;4975501;28;20728;-82
2022/07/09 08:11:17;;;;;;;0.80;0.60;;;24.20;93.50;;;;;;4976088;28;20241;-81
2022/07/09 08:13:45;;;;;;;0.77;0.77;;;24.30;93.10;;;;;;4976400;28;20625;-82
2022/07/09 08:16:12;;;;;;;0.73;0.50;;;24.30;93.90;;;;;;4975872;28;20212;-81
2022/07/09 08:18:38;;;;;;;0.50;0.50;;;24.30;93.60;;;;;;4971449;28;20233;-82
2022/07/09 08:21:05;;;;;;;0.50;0.50;;;24.10;92.40;;;;;;4963576;28;20205;-82
2022/07/09 08:23:50;;;;;;;0.45;0.45;;;24.30;93.20;;;;;;4975924;28;20579;-82
2022/07/09 08:26:18;;;;;;;0.50;0.40;;;24.40;92.90;;;;;;4976010;28;20193;-82
2022/07/09 08:28:46;;;;;;;0.70;0.70;;;24.40;93.20;;;;;;4975989;28;20231;-82
2022/07/09 08:31:12;;;;;;;0.50;0.50;;;24.30;92.80;;;;;;4975932;28;20212;-79
2022/07/09 08:33:39;;;;;;;0.50;0.50;;;24.10;92.70;;;;;;4976000;28;20209;-81
2022/07/09 08:36:06;;;;;;;0.40;0.40;;;24.10;93.10;;;;;;4975851;28;20213;-81
2022/07/09 08:38:33;;;;;;;0.47;0.45;;;24.00;92.90;;;;;;4975863;28;20221;-81
2022/07/09 08:41:01;;;;;;;0.63;0.63;;;24.10;93.50;;;;;;4975744;28;20201;-82
2022/07/09 08:43:28;;;;;;;0.40;0.40;;;24.30;93.50;;;;;;4975799;28;20205;-82
2022/07/09 08:45:58;;;;;;;0.80;0.50;;;24.40;92.70;;;;;;4975500;28;20685;-80
2022/07/09 08:48:24;;;;;;;0.50;0.50;;;24.60;91.80;;;;;;4975208;28;20225;-81
2022/07/09 08:50:52;;;;;;;0.40;0.40;;;24.50;92.30;;;;;;4975558;28;20209;-81
2022/07/09 08:53:20;;;;;;;0.70;0.50;;;24.50;93.00;;;;;;4975568;28;20212;-81
2022/07/09 08:55:47;;;;;;;1.08;0.98;;;24.20;92.70;;;;;;4975515;28;20216;-80
2022/07/09 08:58:15;;;;;;;0.70;0.70;;;23.80;92.80;;;;;;4975412;28;20225;-81
2022/07/09 09:00:42;;;;;;;0.60;0.60;;;23.60;92.80;;;;;;4975408;28;20205;-80
2022/07/09 09:03:10;;;;;;;0.50;0.40;;;23.80;92.90;;;;;;4975411;28;20205;-81
2022/07/09 09:05:37;;;;;;;0.40;0.40;;;24.00;92.60;;;;;;4975335;28;20214;-81
2022/07/09 09:08:18;;;;;;;0.88;0.57;;;24.20;91.10;;;;;;4975224;28;20232;-80
2022/07/09 09:10:46;;;;;;;0.50;0.50;;;24.40;91.80;;;;;;4975279;28;20193;-80
2022/07/09 09:13:16;;;;;;;1.67;0.60;;;24.70;91.50;;;;;;4955637;29;20677;-80
2022/07/09 09:15:43;;;;;;;0.50;0.50;;;25.00;91.30;;;;;;4955622;29;20202;-80
2022/07/09 09:18:11;;;;;;;0.60;0.60;;;25.40;91.30;;;;;;4955704;28;20229;-81
2022/07/09 09:20:45;;;;;;;0.40;0.40;;;25.60;90.50;;;;;;4954828;28;20599;-80
2022/07/09 09:23:17;;;;;;;0.57;0.57;;;25.70;90.10;;;;;;4955357;29;20666;-80
2022/07/09 09:25:43;;;;;;;0.70;0.70;;;25.60;90.20;;;;;;4955625;29;20194;-81
2022/07/09 09:28:12;;;;;;;0.70;0.70;;;25.60;89.30;;;;;;4955349;28;20230;-80
2022/07/09 09:30:43;;;;;;;0.65;0.65;;;25.60;89.70;;;;;;4955618;29;20229;-80
2022/07/09 09:33:15;;;;;;;0.77;0.50;;;25.40;89.40;;;;;;4955701;29;20197;-80
2022/07/09 09:35:44;;;;;;;0.50;0.50;;;25.10;89.60;;;;;;4955421;29;20242;-80
2022/07/09 09:38:11;;;;;;;0.50;0.50;;;25.00;87.30;;;;;;4955206;28;20274;-80
2022/07/09 09:40:39;;;;;;;0.80;0.55;;;24.90;87.30;;;;;;4955552;29;20206;-80
2022/07/09 09:43:08;;;;;;;0.50;0.50;;;24.60;86.80;;;;;;4955496;29;20205;-80
2022/07/09 09:45:35;;;;;;;0.50;0.40;;;24.40;88.00;;;;;;4955276;29;20268;-81
2022/07/09 09:48:05;;;;;;;0.50;0.50;;;24.30;88.10;;;;;;4955436;28;20590;-81
2022/07/09 09:50:34;;;;;;;0.40;0.40;;;24.40;87.90;;;;;;4955107;29;20574;-81
2022/07/09 09:53:03;;;;;;;1.02;0.52;;;24.60;86.20;;;;;;4955208;29;20246;-81
2022/07/09 09:55:30;;;;;;;0.68;0.40;;;24.80;85.50;;;;;;4955413;29;20639;-81
2022/07/09 09:57:58;;;;;;;0.55;0.40;;;24.90;86.20;;;;;;4955045;28;20222;-81
2022/07/09 10:00:25;;;;;;;0.40;0.40;;;25.20;84.20;;;;;;4955046;29;20228;-81
2022/07/09 10:02:51;;;;;;;0.50;0.40;;;25.30;83.80;;;;;;4954977;29;20685;-81
2022/07/09 10:05:18;;;;;;;0.40;0.40;;;25.50;84.10;;;;;;4955335;29;20226;-81
2022/07/09 10:07:46;;;;;;;0.35;0.30;;;25.60;80.50;;;;;;4955133;28;20226;-81
2022/07/09 10:10:19;;;;;;;0.40;0.30;;;25.80;78.20;;;;;;4955111;29;20230;-81
2022/07/09 10:12:46;;;;;;;0.40;0.38;;;25.80;76.60;;;;;;4970369;28;20748;-81
2022/07/09 10:15:22;;;;;;;0.50;0.30;;;25.60;78.10;;;;;;4974196;28;20197;-81
2022/07/09 10:17:49;;;;;;;0.50;0.50;;;25.50;80.00;;;;;;4974404;28;20287;-81
2022/07/09 10:20:16;;;;;;;0.40;0.40;;;25.50;81.20;;;;;;4974376;28;20205;-81
2022/07/09 10:22:43;;;;;;;0.40;0.40;;;25.40;79.70;;;;;;4974431;28;20197;-81
2022/07/09 10:25:13;;;;;;;0.60;0.60;;;25.20;77.60;;;;;;4974347;28;20231;-81
2022/07/09 10:27:44;;;;;;;0.40;0.40;;;25.10;79.30;;;;;;4974544;28;20226;-81
2022/07/09 10:30:24;;;;;;;0.60;0.50;;;25.20;80.80;;;;;;4974235;28;20314;-80
2022/07/09 10:33:03;;;;;;;1.15;0.50;;;25.20;84.40;;;;;;4975583;28;20322;-81
2022/07/09 10:35:30;;;;;;;0.47;0.40;;;25.40;81.50;;;;;;4978016;28;20178;-81
2022/07/09 10:37:57;;;;;;;0.40;0.40;;;25.60;81.30;;;;;;4977789;28;20240;-81
2022/07/09 10:40:27;;;;;;;1.98;0.40;;;25.70;80.30;;;;;;4977996;28;20201;-80
2022/07/09 10:42:59;;;;;;;0.50;0.40;;;25.80;77.80;;;;;;4977695;28;20555;-81
2022/07/09 10:45:27;;;;;;;0.40;0.38;;;25.80;78.20;;;;;;4977723;28;20186;-80
2022/07/09 10:47:56;;;;;;;0.60;0.55;;;25.60;78.40;;;;;;4977538;28;20337;-81
2022/07/09 10:50:24;;;;;;;0.40;0.40;;;25.40;78.80;;;;;;4977493;28;20217;-81
2022/07/09 10:52:51;;;;;;;0.55;0.50;;;25.40;82.90;;;;;;4977890;28;20206;-81
2022/07/09 10:55:19;;;;;;;0.50;0.40;;;25.50;82.10;;;;;;4977956;28;20205;-81
2022/07/09 10:57:47;;;;;;;0.40;0.40;;;25.70;80.30;;;;;;4977330;28;20276;-81
2022/07/09 11:00:18;;;;;;;0.50;0.50;;;26.00;80.50;;;;;;4977216;28;20209;-81
2022/07/09 11:02:59;;;;;;;0.40;0.40;;;26.30;78.50;;;;;;4977561;28;20209;-81
2022/07/09 11:05:27;;;;;;;0.60;0.40;;;26.70;77.50;;;;;;4977240;28;20640;-81
2022/07/09 11:07:59;;;;;;;0.43;0.43;;;27.10;77.10;;;;;;4977448;28;20252;-80
2022/07/09 11:10:27;;;;;;;0.60;0.60;;;27.70;74.10;;;;;;4977457;28;20224;-81
2022/07/09 11:12:55;;;;;;;0.50;0.50;;;27.90;74.70;;;;;;4977015;28;20256;-81
2022/07/09 11:15:23;;;;;;;0.50;0.50;;;27.50;74.40;;;;;;4977706;28;20208;-80
2022/07/09 11:18:08;;;;;;;0.40;0.40;;;27.00;76.80;;;;;;4977345;28;20225;-81
2022/07/09 11:20:39;;;;;;;0.50;0.50;;;26.40;77.90;;;;;;4977213;28;20272;-81
2022/07/09 11:23:06;;;;;;;0.40;0.40;;;26.00;80.90;;;;;;4977326;28;20208;-81
2022/07/09 11:25:33;;;;;;;0.50;0.50;;;25.60;82.80;;;;;;4977655;28;20292;-81
2022/07/09 11:28:01;;;;;;;0.85;0.50;;;25.30;83.30;;;;;;4976880;28;20218;-81
2022/07/09 11:30:29;;;;;;;0.50;0.50;;;25.10;83.10;;;;;;4976797;28;20217;-81
2022/07/09 11:32:56;;;;;;;1.30;0.50;;;24.90;83.00;;;;;;4977125;28;20235;-81
2022/07/09 11:35:27;;;;;;;0.50;0.40;;;24.80;82.60;;;;;;4977031;28;20216;-81
2022/07/09 11:37:55;;;;;;;0.57;0.57;;;24.80;83.50;;;;;;4976954;28;20236;-81
2022/07/09 11:40:22;;;;;;;0.65;0.60;;;24.80;85.50;;;;;;4976759;28;20194;-80
2022/07/09 11:42:50;;;;;;;0.60;0.60;;;25.00;83.20;;;;;;4976921;28;20206;-81
2022/07/09 11:45:21;;;;;;;0.52;0.52;;;24.90;82.50;;;;;;4975869;28;20209;-81
2022/07/09 11:47:48;;;;;;;0.70;0.60;;;24.90;81.70;;;;;;4976489;28;20708;-81
2022/07/09 11:50:18;;;;;;;0.50;0.50;;;24.70;79.20;;;;;;4976372;28;20232;-81
2022/07/09 11:52:46;;;;;;;0.60;0.57;;;24.60;82.20;;;;;;4976805;28;20225;-81
2022/07/09 11:55:15;;;;;;;0.52;0.52;;;24.50;84.00;;;;;;4976674;28;20209;-80
2022/07/09 11:57:52;;;;;;;0.40;0.40;;;24.50;87.40;;;;;;4976588;28;20233;-80
2022/07/09 12:00:24;;;;;;;0.57;0.45;;;24.50;86.30;;;;;;4976387;28;20642;-80
2022/07/09 12:02:51;;;;;;;0.80;0.50;;;24.40;86.10;;;;;;4976606;28;20189;-80
2022/07/09 12:05:27;;;;;;;0.50;0.50;;;24.40;86.10;;;;;;4976520;28;20224;-80
2022/07/09 12:07:54;;;;;;;0.50;0.50;;;24.40;86.50;;;;;;4976405;28;20243;-80
2022/07/09 12:10:27;;;;;;;0.60;0.60;;;24.50;84.00;;;;;;4976341;28;20225;-80
2022/07/09 12:12:53;;;;;;;0.60;0.55;;;24.70;83.50;;;;;;4975844;28;20244;-80
2022/07/09 12:15:22;;;;;;;0.60;0.60;;;24.90;84.60;;;;;;4976338;28;20205;-80
2022/07/09 12:17:54;;;;;;;0.50;0.47;;;25.10;82.70;;;;;;4976143;28;20232;-80
2022/07/09 12:20:21;;;;;;;1.10;0.80;;;25.00;83.00;;;;;;4975984;28;20654;-80
2022/07/09 12:22:47;;;;;;;0.50;0.50;;;25.00;81.60;;;;;;4976140;28;20205;-80
2022/07/09 12:25:14;;;;;;;1.25;0.50;;;24.90;83.20;;;;;;4976101;28;20209;-80
2022/07/09 12:27:41;;;;;;;0.80;0.52;;;24.80;82.80;;;;;;4976012;28;20237;-80
2022/07/09 12:30:09;;;;;;;0.60;0.50;;;24.70;83.50;;;;;;4975690;28;20217;-80
2022/07/09 12:32:37;;;;;;;0.50;0.50;;;24.60;85.70;;;;;;4975980;28;20217;-80
2022/07/09 12:35:04;;;;;;;0.60;0.60;;;24.40;86.90;;;;;;4975706;28;20186;-80
2022/07/09 12:37:31;;;;;;;1.08;0.68;;;24.30;86.10;;;;;;4975642;28;20705;-80
2022/07/09 12:39:58;;;;;;;0.40;0.40;;;24.30;87.00;;;;;;4975831;28;20206;-80
2022/07/09 12:42:25;;;;;;;0.40;0.40;;;24.40;86.20;;;;;;4975545;28;20665;-80
2022/07/09 12:44:51;;;;;;;0.50;0.40;;;24.60;84.10;;;;;;4975772;28;20209;-80
2022/07/09 12:47:18;;;;;;;1.65;0.52;;;24.70;85.00;;;;;;4975584;28;20323;-80
2022/07/09 12:49:46;;;;;;;0.50;0.50;;;24.60;85.20;;;;;;4975678;28;20209;-80